Time;durP1;ratioP1;P1;durP2;ratioP2;P2;SDS_P1;SDS_P2;PMS_P1;PMS_P2;Temp;Humidity;BMP_temperature;BMP_pressure;BME280_temperature;BME280_humidity;BME280_pressure;Samples;Min_cycle;Max_cycle;Signal;HPM_P1;HPM_P2
2022/07/28 00:02:02;;;;;;;2.10;1.30;;;19.10;77.70;;;;;;5002492;28;20094;-83
2022/07/28 00:04:27;;;;;;;2.92;0.80;;;19.10;76.80;;;;;;5035099;28;20057;-84
2022/07/28 00:06:53;;;;;;;4.95;1.63;;;19.00;76.80;;;;;;4998893;28;20143;-84
2022/07/28 00:09:19;;;;;;;3.35;1.10;;;19.00;76.80;;;;;;5012049;28;20383;-84
2022/07/28 00:11:45;;;;;;;3.45;1.30;;;19.00;76.80;;;;;;4999093;28;20026;-83
2022/07/28 00:14:11;;;;;;;3.60;0.80;;;19.00;76.70;;;;;;4998998;28;20022;-83
2022/07/28 00:16:36;;;;;;;3.72;1.20;;;18.90;76.60;;;;;;4999115;28;20480;-83
2022/07/28 00:19:39;;;;;;;5.70;1.23;;;18.90;76.80;;;;;;5008350;28;20461;-83
2022/07/28 00:22:06;;;;;;;2.88;1.00;;;18.90;76.80;;;;;;4995663;28;20018;-83
2022/07/28 00:24:32;;;;;;;2.40;1.08;;;18.90;76.60;;;;;;4990661;28;20029;-83
2022/07/28 00:26:58;;;;;;;2.17;1.05;;;18.80;76.60;;;;;;5003737;28;20037;-83
2022/07/28 00:29:24;;;;;;;5.38;1.42;;;18.80;76.60;;;;;;5012853;28;20032;-83
2022/07/28 00:31:50;;;;;;;4.05;0.95;;;18.80;76.70;;;;;;4998162;28;20113;-84
2022/07/28 00:34:15;;;;;;;2.15;0.80;;;18.80;76.90;;;;;;4995552;28;20033;-83
2022/07/28 00:36:50;;;;;;;3.45;1.35;;;18.80;76.90;;;;;;4992022;28;20113;-83
2022/07/28 00:39:16;;;;;;;3.22;0.95;;;18.70;76.90;;;;;;5002267;28;20116;-83
2022/07/28 00:41:41;;;;;;;5.15;1.20;;;18.70;77.00;;;;;;4999247;28;20125;-83
2022/07/28 00:44:08;;;;;;;2.03;1.02;;;18.70;77.10;;;;;;5035830;28;20029;-83
2022/07/28 00:46:33;;;;;;;3.03;0.90;;;18.70;77.20;;;;;;4999120;28;20026;-83
2022/07/28 00:49:00;;;;;;;3.38;1.35;;;18.70;77.90;;;;;;4996670;28;20088;-83
2022/07/28 00:51:26;;;;;;;3.53;1.23;;;18.60;78.30;;;;;;4999098;28;20052;-83
2022/07/28 00:53:53;;;;;;;4.90;1.65;;;18.60;78.00;;;;;;5012979;28;20021;-83
2022/07/28 00:56:19;;;;;;;4.63;1.48;;;18.60;78.00;;;;;;5023799;28;20052;-83
2022/07/28 00:58:46;;;;;;;4.18;1.10;;;18.60;78.00;;;;;;5018822;28;20025;-83
2022/07/28 01:01:16;;;;;;;3.33;1.00;;;18.60;78.10;;;;;;5018298;28;20033;-83
2022/07/28 01:03:45;;;;;;;5.20;1.00;;;18.50;78.00;;;;;;5018731;28;20457;-83
2022/07/28 01:06:20;;;;;;;5.10;1.17;;;18.50;78.10;;;;;;5022656;28;20048;-84
2022/07/28 01:09:14;;;;;;;3.28;1.23;;;18.50;78.10;;;;;;5038136;28;20499;-83
2022/07/28 01:12:24;;;;;;;6.43;2.10;;;18.50;78.30;;;;;;5025822;28;20440;-83
2022/07/28 01:15:08;;;;;;;5.25;1.90;;;18.40;78.40;;;;;;4958753;28;20079;-83
2022/07/28 01:17:48;;;;;;;3.33;1.20;;;18.40;78.80;;;;;;4985563;28;20031;-83
2022/07/28 01:20:16;;;;;;;4.40;1.15;;;18.40;78.80;;;;;;5024206;28;20571;-83
2022/07/28 01:23:02;;;;;;;4.15;1.23;;;18.30;78.80;;;;;;5037638;28;20026;-83
2022/07/28 01:25:49;;;;;;;5.55;1.40;;;18.30;78.80;;;;;;5037140;28;20032;-83
2022/07/28 01:28:31;;;;;;;3.40;1.17;;;18.30;79.20;;;;;;5033097;28;20018;-83
2022/07/28 01:31:04;;;;;;;6.18;1.05;;;18.30;79.20;;;;;;5017883;28;20040;-83
2022/07/28 01:33:40;;;;;;;2.33;0.90;;;18.20;79.40;;;;;;5035859;28;20028;-83
2022/07/28 01:36:10;;;;;;;4.03;1.08;;;18.20;79.50;;;;;;5055389;28;20476;-83
2022/07/28 01:38:37;;;;;;;3.30;1.27;;;18.20;79.60;;;;;;5037250;28;20025;-83
2022/07/28 01:41:07;;;;;;;4.60;1.33;;;18.10;79.80;;;;;;5017540;28;20028;-83
2022/07/28 01:43:38;;;;;;;4.72;1.30;;;18.10;80.00;;;;;;5034590;28;20108;-83
2022/07/28 01:46:05;;;;;;;3.13;1.15;;;18.10;80.10;;;;;;5037434;28;20094;-84
2022/07/28 01:48:33;;;;;;;4.30;1.00;;;18.10;80.10;;;;;;5012568;28;20630;-84
2022/07/28 01:51:00;;;;;;;7.45;1.40;;;18.00;80.10;;;;;;5054811;28;20025;-83
2022/07/28 01:53:30;;;;;;;7.75;1.80;;;18.00;80.30;;;;;;5021372;28;20024;-84
2022/07/28 01:55:57;;;;;;;3.35;1.33;;;18.00;80.40;;;;;;5014986;28;20025;-83
2022/07/28 01:58:25;;;;;;;3.53;1.13;;;17.90;80.60;;;;;;5014736;28;20516;-84
2022/07/28 02:00:52;;;;;;;5.07;2.03;;;17.90;80.70;;;;;;5011029;28;20033;-84
2022/07/28 02:03:19;;;;;;;3.50;1.35;;;17.90;80.90;;;;;;5004332;28;20394;-84
2022/07/28 02:05:49;;;;;;;2.70;1.20;;;17.90;80.90;;;;;;5000761;28;20030;-84
2022/07/28 02:08:17;;;;;;;4.13;1.23;;;17.80;81.00;;;;;;5031603;28;20083;-84
2022/07/28 02:13:40;;;;;;;4.00;1.10;;;17.80;81.60;;;;;;5052320;28;20452;-84
2022/07/28 02:16:09;;;;;;;5.53;1.30;;;17.70;81.50;;;;;;5036726;28;20087;-85
2022/07/28 02:18:36;;;;;;;4.32;1.23;;;17.70;81.70;;;;;;5022519;28;20059;-84
2022/07/28 02:21:02;;;;;;;4.30;1.52;;;17.70;82.00;;;;;;5016963;28;20476;-83
2022/07/28 02:23:28;;;;;;;5.38;1.55;;;17.60;82.00;;;;;;5036618;28;20032;-83
2022/07/28 02:25:56;;;;;;;3.45;1.10;;;17.60;82.20;;;;;;5036327;28;20028;-84
2022/07/28 02:28:24;;;;;;;3.90;1.23;;;17.60;82.40;;;;;;5020113;28;20025;-83
2022/07/28 02:30:58;;;;;;;6.15;1.67;;;17.60;82.50;;;;;;5036353;28;20017;-83
2022/07/28 02:33:26;;;;;;;3.08;1.33;;;17.50;82.70;;;;;;5036576;28;20025;-83
2022/07/28 02:36:26;;;;;;;3.72;1.35;;;17.50;82.80;;;;;;5000337;28;20025;-83
2022/07/28 02:38:55;;;;;;;2.10;1.30;;;17.50;83.10;;;;;;5016664;28;20037;-83
2022/07/28 02:41:25;;;;;;;4.82;1.50;;;17.40;83.20;;;;;;5023458;28;20025;-83
2022/07/28 02:43:54;;;;;;;4.93;1.50;;;17.40;83.30;;;;;;5022856;28;20116;-84
2022/07/28 02:46:25;;;;;;;3.38;1.50;;;17.30;83.40;;;;;;5040080;28;20028;-83
2022/07/28 02:48:59;;;;;;;4.75;1.30;;;17.30;83.70;;;;;;5036235;28;20537;-84
2022/07/28 02:51:28;;;;;;;3.85;1.30;;;17.30;83.80;;;;;;5030204;28;20049;-84
2022/07/28 02:53:54;;;;;;;3.83;1.45;;;17.20;84.60;;;;;;5028515;28;20064;-84
2022/07/28 02:56:21;;;;;;;4.28;1.50;;;17.20;84.30;;;;;;5016501;28;20084;-84
2022/07/28 02:58:47;;;;;;;3.85;1.48;;;17.20;84.60;;;;;;5025653;28;20139;-84
2022/07/28 03:01:17;;;;;;;4.80;1.67;;;17.20;84.70;;;;;;5000692;28;20053;-84
2022/07/28 03:03:45;;;;;;;6.30;1.52;;;17.20;84.80;;;;;;5035698;28;20032;-83
2022/07/28 03:06:11;;;;;;;6.22;1.73;;;17.20;84.80;;;;;;5021942;28;20087;-82
2022/07/28 03:08:37;;;;;;;8.65;1.70;;;17.10;84.90;;;;;;5019640;28;20054;-83
2022/07/28 03:14:25;;;;;;;7.38;1.77;;;17.10;85.20;;;;;;5034092;28;20385;-84
2022/07/28 03:16:50;;;;;;;4.15;1.60;;;17.10;85.30;;;;;;5002888;28;20009;-83
2022/07/28 03:19:16;;;;;;;4.93;1.65;;;17.00;85.40;;;;;;5002955;28;20501;-84
2022/07/28 03:21:41;;;;;;;4.90;1.80;;;17.00;85.50;;;;;;5001708;28;20048;-83
2022/07/28 03:24:09;;;;;;;4.93;1.70;;;17.00;85.70;;;;;;5008167;28;20116;-84
2022/07/28 03:26:42;;;;;;;7.13;1.90;;;17.00;85.90;;;;;;5024435;28;20103;-83
2022/07/28 03:29:10;;;;;;;13.88;3.15;;;17.00;85.90;;;;;;5019437;28;20033;-83
2022/07/28 03:31:38;;;;;;;5.10;1.90;;;17.00;86.00;;;;;;5035127;28;20106;-83
2022/07/28 03:34:04;;;;;;;6.22;1.58;;;16.90;86.00;;;;;;5019408;28;20017;-83
2022/07/28 03:36:38;;;;;;;4.20;1.70;;;16.90;86.70;;;;;;4999391;28;20068;-83
2022/07/28 03:39:08;;;;;;;3.65;1.60;;;16.90;86.10;;;;;;5019175;28;20027;-83
2022/07/28 03:41:35;;;;;;;7.10;1.60;;;16.90;85.90;;;;;;5047252;28;20104;-83
2022/07/28 03:44:01;;;;;;;5.53;1.50;;;16.90;85.80;;;;;;5013771;28;20060;-83
2022/07/28 03:46:29;;;;;;;6.25;1.70;;;16.90;85.90;;;;;;5043036;28;20079;-83
2022/07/28 03:48:54;;;;;;;7.10;1.65;;;16.80;86.40;;;;;;5017492;28;20077;-83
2022/07/28 03:51:20;;;;;;;5.97;1.95;;;16.80;86.20;;;;;;5015262;28;20428;-84
2022/07/28 03:57:08;;;;;;;3.45;1.58;;;16.80;86.20;;;;;;5040411;28;20079;-83
2022/07/28 03:59:34;;;;;;;7.43;1.70;;;16.70;86.20;;;;;;5007026;28;20029;-83
2022/07/28 04:01:59;;;;;;;3.95;1.73;;;16.70;86.50;;;;;;5002570;28;20029;-83
2022/07/28 04:04:25;;;;;;;5.97;1.60;;;16.70;86.60;;;;;;5025696;28;20461;-83
2022/07/28 04:06:51;;;;;;;5.40;1.63;;;16.70;86.80;;;;;;5027060;28;20052;-83
2022/07/28 04:09:16;;;;;;;4.45;1.73;;;16.60;87.00;;;;;;4982911;28;20021;-83
2022/07/28 04:11:42;;;;;;;5.68;1.90;;;16.60;87.20;;;;;;5007374;28;20048;-83
2022/07/28 04:17:30;;;;;;;4.07;1.70;;;16.60;87.00;;;;;;5048473;28;20032;-84
2022/07/28 04:19:55;;;;;;;6.35;2.42;;;16.50;87.00;;;;;;5006020;28;20021;-84
2022/07/28 04:22:21;;;;;;;4.82;1.55;;;16.50;87.50;;;;;;5005958;28;20036;-84
2022/07/28 04:24:47;;;;;;;9.15;2.45;;;16.40;88.60;;;;;;5022461;28;20436;-83
2022/07/28 04:27:12;;;;;;;7.97;1.90;;;16.40;88.70;;;;;;5022307;28;20115;-84
2022/07/28 04:29:38;;;;;;;7.50;1.85;;;16.50;88.90;;;;;;5005250;28;20035;-84
2022/07/28 04:32:04;;;;;;;5.45;1.70;;;16.50;89.10;;;;;;5022313;28;20048;-83
2022/07/28 04:34:29;;;;;;;5.30;2.05;;;16.50;89.60;;;;;;5005994;28;20036;-83
2022/07/28 04:36:55;;;;;;;5.15;1.70;;;16.50;89.00;;;;;;5022332;28;20024;-84
2022/07/28 04:39:23;;;;;;;5.40;1.75;;;16.50;89.10;;;;;;5022287;28;20027;-84
2022/07/28 04:41:49;;;;;;;10.38;1.88;;;16.40;89.20;;;;;;5022331;28;20075;-84
2022/07/28 04:44:16;;;;;;;8.73;2.30;;;16.40;89.20;;;;;;5022225;28;20033;-84
2022/07/28 04:46:43;;;;;;;4.32;1.30;;;16.50;89.20;;;;;;5022107;28;20025;-83
2022/07/28 04:49:08;;;;;;;6.90;1.75;;;16.40;89.20;;;;;;5022314;28;20041;-83
2022/07/28 04:51:35;;;;;;;4.45;1.90;;;16.40;89.10;;;;;;5005510;28;20031;-84
2022/07/28 04:54:00;;;;;;;7.20;1.73;;;16.40;89.20;;;;;;5005346;28;20021;-84
2022/07/28 04:56:26;;;;;;;4.03;1.38;;;16.40;89.30;;;;;;5022062;28;20099;-84
2022/07/28 04:58:52;;;;;;;5.95;1.65;;;16.40;89.50;;;;;;5005294;28;20429;-84
2022/07/28 05:01:18;;;;;;;4.15;1.30;;;16.40;89.60;;;;;;5021812;28;20151;-84
2022/07/28 05:03:43;;;;;;;10.98;2.10;;;16.40;89.60;;;;;;5008094;28;20444;-84
2022/07/28 05:06:09;;;;;;;6.82;2.00;;;16.40;89.80;;;;;;5018078;28;20049;-84
2022/07/28 05:08:35;;;;;;;5.25;1.40;;;16.40;89.90;;;;;;5004560;28;20447;-84
2022/07/28 05:11:01;;;;;;;4.50;1.58;;;16.40;90.00;;;;;;5001874;28;20477;-84
2022/07/28 05:13:26;;;;;;;4.03;1.45;;;16.40;90.10;;;;;;5018078;28;20033;-84
2022/07/28 05:15:52;;;;;;;5.95;1.60;;;16.40;90.10;;;;;;5022078;28;20025;-84
2022/07/28 05:18:17;;;;;;;3.80;1.40;;;16.40;90.10;;;;;;5008626;28;20025;-84
2022/07/28 05:20:43;;;;;;;8.02;2.90;;;16.40;90.20;;;;;;5011353;28;20022;-84
2022/07/28 05:23:10;;;;;;;5.40;1.83;;;16.40;90.20;;;;;;5015989;28;20523;-83
2022/07/28 05:25:36;;;;;;;5.90;1.52;;;16.40;90.30;;;;;;5017008;28;20027;-83
2022/07/28 05:28:02;;;;;;;5.22;1.65;;;16.40;90.20;;;;;;5032275;28;20021;-84
2022/07/28 05:30:28;;;;;;;7.13;1.90;;;16.40;90.20;;;;;;5021211;28;20458;-84
2022/07/28 05:32:58;;;;;;;3.28;1.50;;;16.40;90.20;;;;;;5009079;28;20021;-84
2022/07/28 05:35:24;;;;;;;5.78;1.58;;;16.40;90.20;;;;;;5015546;28;20022;-84
2022/07/28 05:37:50;;;;;;;4.22;1.50;;;16.40;90.30;;;;;;5001538;28;20033;-83
2022/07/28 05:40:17;;;;;;;4.75;1.48;;;16.40;90.20;;;;;;5034286;28;20485;-83
2022/07/28 05:42:43;;;;;;;3.92;1.35;;;16.40;90.10;;;;;;5001463;28;20531;-84
2022/07/28 05:45:10;;;;;;;6.13;1.75;;;16.40;90.10;;;;;;5013096;28;20041;-83
2022/07/28 05:47:44;;;;;;;3.42;1.27;;;16.40;90.20;;;;;;5005601;28;20029;-86
2022/07/28 05:50:10;;;;;;;8.85;2.22;;;16.50;90.20;;;;;;5038261;28;20029;-86
2022/07/28 05:52:35;;;;;;;2.22;1.35;;;16.40;90.20;;;;;;5005908;28;20118;-87
2022/07/28 05:55:01;;;;;;;4.93;1.60;;;16.40;90.30;;;;;;5022421;28;20171;-86
2022/07/28 05:57:27;;;;;;;3.92;1.40;;;16.50;90.40;;;;;;5006503;28;20061;-86
2022/07/28 05:59:52;;;;;;;4.75;1.40;;;16.50;90.40;;;;;;5040010;28;20025;-87
2022/07/28 06:02:18;;;;;;;4.45;1.50;;;16.50;90.30;;;;;;5012010;28;20040;-87
2022/07/28 06:04:44;;;;;;;4.97;1.60;;;16.50;90.30;;;;;;5005438;28;20025;-87
2022/07/28 06:07:09;;;;;;;4.43;1.52;;;16.50;90.30;;;;;;5020915;28;20053;-86
2022/07/28 06:12:57;;;;;;;3.55;1.27;;;16.50;90.40;;;;;;5056087;28;20447;-87
2022/07/28 06:15:25;;;;;;;3.30;1.30;;;16.60;90.40;;;;;;5037781;28;20049;-87
2022/07/28 06:17:54;;;;;;;3.92;1.55;;;16.60;90.50;;;;;;5037558;28;20017;-87
2022/07/28 06:20:24;;;;;;;4.53;1.30;;;16.60;90.60;;;;;;5037328;28;20032;-87
2022/07/28 06:22:52;;;;;;;5.45;1.60;;;16.60;90.90;;;;;;5022963;28;20025;-86
2022/07/28 06:25:26;;;;;;;5.43;1.65;;;16.60;90.70;;;;;;5041323;28;20033;-86
2022/07/28 06:27:54;;;;;;;6.95;1.80;;;16.70;90.80;;;;;;5037266;28;20029;-87
2022/07/28 06:30:20;;;;;;;5.70;1.42;;;16.70;90.80;;;;;;5037043;28;20025;-86
2022/07/28 06:32:46;;;;;;;5.15;1.50;;;16.80;90.90;;;;;;5037089;28;20032;-87
2022/07/28 06:35:15;;;;;;;3.20;1.70;;;16.80;90.90;;;;;;5036834;28;20104;-87
2022/07/28 06:37:41;;;;;;;4.28;1.92;;;16.90;91.00;;;;;;5037012;28;20024;-86
2022/07/28 06:40:08;;;;;;;4.18;1.40;;;16.90;91.10;;;;;;5036790;28;20502;-87
2022/07/28 06:42:34;;;;;;;4.18;1.45;;;17.00;91.00;;;;;;5020668;28;20124;-85
2022/07/28 06:44:59;;;;;;;4.25;1.23;;;17.00;91.00;;;;;;5020715;28;20113;-86
2022/07/28 06:50:47;;;;;;;4.18;1.38;;;17.10;91.10;;;;;;5056084;28;20102;-87
2022/07/28 06:56:35;;;;;;;3.20;1.48;;;17.20;91.00;;;;;;5054685;28;20060;-87
2022/07/28 06:59:00;;;;;;;4.20;1.40;;;17.30;90.80;;;;;;5004094;28;20049;-87
2022/07/28 07:01:26;;;;;;;3.85;1.13;;;17.30;90.80;;;;;;5000202;28;20052;-87
2022/07/28 07:03:52;;;;;;;3.70;1.30;;;17.40;90.60;;;;;;5018719;28;20022;-86
2022/07/28 07:06:18;;;;;;;4.78;1.35;;;17.40;90.60;;;;;;5016833;28;20516;-86
2022/07/28 07:08:43;;;;;;;3.95;1.10;;;17.50;90.40;;;;;;5000759;28;20095;-85
2022/07/28 07:11:09;;;;;;;3.95;1.00;;;17.50;90.30;;;;;;5000446;28;20025;-86
2022/07/28 07:13:35;;;;;;;6.53;1.13;;;17.50;90.30;;;;;;5000720;28;20044;-85
2022/07/28 07:16:01;;;;;;;4.07;1.08;;;17.60;90.20;;;;;;5034511;28;20029;-86
2022/07/28 07:18:27;;;;;;;5.38;1.20;;;17.60;90.10;;;;;;5016631;28;20026;-85
2022/07/28 07:20:53;;;;;;;5.22;1.50;;;17.70;90.00;;;;;;5032587;28;20059;-85
2022/07/28 07:23:19;;;;;;;2.85;1.02;;;17.70;90.00;;;;;;5000102;28;20041;-86
2022/07/28 07:25:44;;;;;;;2.45;1.08;;;17.80;89.70;;;;;;4999770;28;20041;-85
2022/07/28 07:28:10;;;;;;;3.72;1.20;;;17.80;89.40;;;;;;4999598;28;20071;-85
2022/07/28 07:30:36;;;;;;;3.25;0.80;;;17.90;89.10;;;;;;4999938;28;20092;-86
2022/07/28 07:33:01;;;;;;;4.90;0.95;;;17.90;88.90;;;;;;5032904;28;20061;-85
2022/07/28 07:35:27;;;;;;;3.80;1.10;;;18.00;89.00;;;;;;5000633;28;20064;-85
2022/07/28 07:37:54;;;;;;;3.17;1.02;;;18.00;88.90;;;;;;5016173;28;20026;-85
2022/07/28 07:40:20;;;;;;;3.03;1.00;;;18.10;89.00;;;;;;5016938;28;20026;-85
2022/07/28 07:42:46;;;;;;;2.92;0.95;;;18.20;88.80;;;;;;4999639;28;20366;-85
2022/07/28 07:45:11;;;;;;;3.28;0.80;;;18.30;88.20;;;;;;5015988;28;20056;-85
2022/07/28 07:47:37;;;;;;;5.20;1.60;;;18.30;87.20;;;;;;4999090;28;20120;-86
2022/07/28 07:50:03;;;;;;;2.95;0.98;;;18.40;86.30;;;;;;4999885;28;20045;-85
2022/07/28 07:52:29;;;;;;;1.95;0.80;;;18.40;85.80;;;;;;5000611;28;20041;-86
2022/07/28 07:54:54;;;;;;;2.63;0.80;;;18.50;85.20;;;;;;5002442;28;20030;-85
2022/07/28 07:57:20;;;;;;;2.33;0.93;;;18.50;84.60;;;;;;5018073;28;20029;-84
2022/07/28 07:59:46;;;;;;;4.40;0.80;;;18.50;84.20;;;;;;5034730;28;20021;-84
2022/07/28 08:02:11;;;;;;;3.65;0.90;;;18.60;84.00;;;;;;5002678;28;20029;-84
2022/07/28 08:04:37;;;;;;;4.32;1.30;;;18.60;84.10;;;;;;5002166;28;20033;-84
2022/07/28 08:07:02;;;;;;;3.13;0.90;;;18.70;84.00;;;;;;4996350;28;20050;-84
2022/07/28 08:09:28;;;;;;;2.08;0.95;;;18.70;83.90;;;;;;4998320;28;20034;-84
2022/07/28 08:11:54;;;;;;;2.05;0.95;;;18.80;83.70;;;;;;5016992;28;20120;-84
2022/07/28 08:14:19;;;;;;;4.75;1.02;;;18.80;83.00;;;;;;4997331;28;20092;-85
2022/07/28 08:16:45;;;;;;;1.80;0.82;;;18.90;82.60;;;;;;4996392;28;20029;-84
2022/07/28 08:19:11;;;;;;;4.32;0.98;;;19.00;82.00;;;;;;4996741;28;20033;-84
2022/07/28 08:21:36;;;;;;;1.42;0.70;;;19.00;81.30;;;;;;4996468;28;20026;-84
2022/07/28 08:24:02;;;;;;;2.10;0.90;;;19.00;80.80;;;;;;4996963;28;20440;-85
2022/07/28 08:26:28;;;;;;;3.67;0.82;;;19.10;80.40;;;;;;4996640;28;20034;-86
2022/07/28 08:28:54;;;;;;;3.67;0.75;;;19.10;80.20;;;;;;4998229;28;20121;-84
2022/07/28 08:31:20;;;;;;;2.72;0.70;;;19.20;80.10;;;;;;4997950;28;20034;-85
2022/07/28 08:33:47;;;;;;;1.67;0.80;;;19.30;79.60;;;;;;4996500;28;20030;-85
2022/07/28 08:36:13;;;;;;;1.88;0.90;;;19.30;79.50;;;;;;5012949;28;20018;-85
2022/07/28 08:38:39;;;;;;;2.65;0.70;;;19.40;79.30;;;;;;4996214;28;20076;-84
2022/07/28 08:41:07;;;;;;;0.90;0.70;;;19.40;79.40;;;;;;5012575;28;20034;-84
2022/07/28 08:43:37;;;;;;;2.90;1.00;;;19.50;79.70;;;;;;5013065;28;20066;-84
2022/07/28 08:46:05;;;;;;;4.45;1.00;;;19.50;79.00;;;;;;5014386;28;20034;-84
2022/07/28 08:48:33;;;;;;;2.38;0.80;;;19.60;78.50;;;;;;5013164;28;20036;-84
2022/07/28 08:51:08;;;;;;;2.40;0.80;;;19.70;77.90;;;;;;5012309;28;20232;-85
2022/07/28 08:53:39;;;;;;;2.42;0.90;;;19.70;78.10;;;;;;5012144;28;20022;-84
2022/07/28 08:56:06;;;;;;;;;;;19.80;77.80;;;;;;5014069;28;20103;-85
2022/07/28 08:58:33;;;;;;;1.52;0.52;;;19.90;78.10;;;;;;5014346;28;19905;-85
2022/07/28 09:00:59;;;;;;;2.55;0.60;;;19.90;77.60;;;;;;4999410;28;20482;-86
2022/07/28 09:03:26;;;;;;;2.13;0.98;;;20.00;76.90;;;;;;5015667;28;20034;-85
2022/07/28 09:05:53;;;;;;;3.00;0.90;;;20.10;76.50;;;;;;4999375;28;20088;-86
2022/07/28 09:08:19;;;;;;;2.88;0.82;;;20.10;75.90;;;;;;5004540;28;20068;-85
2022/07/28 09:10:46;;;;;;;2.70;0.85;;;20.20;75.80;;;;;;5035704;28;20393;-85
2022/07/28 09:13:12;;;;;;;6.65;1.20;;;20.30;75.70;;;;;;5036659;28;20050;-85
2022/07/28 09:15:38;;;;;;;2.47;0.82;;;20.30;75.60;;;;;;5018489;28;20037;-84
2022/07/28 09:18:04;;;;;;;1.73;0.73;;;20.30;75.30;;;;;;5019237;28;20381;-85
2022/07/28 09:20:30;;;;;;;3.25;1.10;;;20.40;75.00;;;;;;5020398;28;20120;-85
2022/07/28 09:23:04;;;;;;;2.15;0.88;;;20.50;74.30;;;;;;5018964;28;20032;-86
2022/07/28 09:25:30;;;;;;;4.05;0.70;;;20.50;74.20;;;;;;5035900;28;20018;-85
2022/07/28 09:28:05;;;;;;;4.10;0.90;;;20.50;74.10;;;;;;5034728;28;20366;-86
2022/07/28 09:30:33;;;;;;;2.50;0.90;;;20.60;74.80;;;;;;5018301;28;20034;-85
2022/07/28 09:33:17;;;;;;;4.00;1.00;;;20.60;75.20;;;;;;5018198;28;20111;-84
2022/07/28 09:35:51;;;;;;;3.63;1.15;;;20.70;75.90;;;;;;5034173;28;20018;-83
2022/07/28 09:38:18;;;;;;;1.42;0.75;;;20.80;76.20;;;;;;5006581;28;20033;-84
2022/07/28 09:40:57;;;;;;;1.45;0.98;;;20.80;76.20;;;;;;4999152;28;20025;-84
2022/07/28 09:43:37;;;;;;;1.92;0.90;;;20.90;76.50;;;;;;5023962;28;20029;-85
2022/07/28 09:46:08;;;;;;;2.15;1.00;;;20.90;76.50;;;;;;5017106;28;20107;-85
2022/07/28 09:48:37;;;;;;;4.45;0.70;;;21.00;76.40;;;;;;5013664;28;20037;-83
2022/07/28 09:51:14;;;;;;;4.22;0.77;;;21.10;76.30;;;;;;5033840;28;20025;-83
2022/07/28 09:53:41;;;;;;;0.77;0.50;;;21.10;76.50;;;;;;5017379;28;20374;-83
2022/07/28 09:56:07;;;;;;;3.20;0.90;;;21.20;76.40;;;;;;5017426;28;20028;-84
2022/07/28 09:58:33;;;;;;;1.35;0.60;;;21.20;75.90;;;;;;5017409;28;20021;-84
2022/07/28 10:01:19;;;;;;;3.75;1.00;;;21.30;75.40;;;;;;5017329;28;20033;-84
2022/07/28 10:03:49;;;;;;;1.27;0.65;;;21.40;76.00;;;;;;5021186;28;20048;-84
2022/07/28 10:06:22;;;;;;;5.07;1.15;;;21.40;76.00;;;;;;5003148;28;20105;-84
2022/07/28 10:08:49;;;;;;;2.15;0.95;;;21.50;76.00;;;;;;4996979;28;20477;-84
2022/07/28 10:11:23;;;;;;;1.73;0.90;;;21.50;75.50;;;;;;5010312;28;20425;-84
2022/07/28 10:14:02;;;;;;;0.68;0.47;;;21.60;75.70;;;;;;5028619;28;20030;-84
2022/07/28 10:16:30;;;;;;;1.27;0.60;;;21.70;75.70;;;;;;4997561;28;20022;-84
2022/07/28 10:18:58;;;;;;;1.63;0.73;;;21.70;74.90;;;;;;5013537;28;20108;-84
2022/07/28 10:21:25;;;;;;;2.08;0.80;;;21.80;74.80;;;;;;5014915;28;20037;-83
2022/07/28 10:23:54;;;;;;;1.70;0.57;;;21.80;75.00;;;;;;5003142;28;20024;-83
2022/07/28 10:26:32;;;;;;;1.65;0.75;;;21.90;74.80;;;;;;5005953;28;20034;-83
2022/07/28 10:29:03;;;;;;;1.55;0.82;;;21.90;74.00;;;;;;5015703;28;20059;-83
2022/07/28 10:31:37;;;;;;;1.10;0.50;;;22.00;73.90;;;;;;5016890;28;20024;-85
2022/07/28 10:34:06;;;;;;;1.63;0.73;;;22.00;73.90;;;;;;5012060;28;20053;-84
2022/07/28 10:36:33;;;;;;;1.75;0.60;;;22.10;73.70;;;;;;5025907;28;20047;-84
2022/07/28 10:39:11;;;;;;;1.80;0.75;;;22.10;72.80;;;;;;5030960;28;20014;-84
2022/07/28 10:41:41;;;;;;;2.05;0.43;;;22.10;72.60;;;;;;4997419;28;20072;-84
2022/07/28 10:44:12;;;;;;;2.05;0.63;;;22.20;72.00;;;;;;5010885;28;20034;-84
2022/07/28 10:46:42;;;;;;;1.65;0.68;;;22.20;71.70;;;;;;4991534;28;20043;-84
2022/07/28 10:49:09;;;;;;;2.05;0.70;;;22.30;71.20;;;;;;5034000;28;20014;-83
2022/07/28 10:51:36;;;;;;;3.17;0.80;;;22.30;71.00;;;;;;5007372;28;20030;-82
2022/07/28 10:54:17;;;;;;;2.63;0.80;;;22.40;70.90;;;;;;4997968;28;20029;-83
2022/07/28 10:57:02;;;;;;;2.95;0.55;;;22.50;70.40;;;;;;5033859;28;20018;-83
2022/07/28 10:59:43;;;;;;;1.83;1.00;;;22.50;69.90;;;;;;5016221;28;20028;-83
2022/07/28 11:02:44;;;;;;;1.90;0.70;;;22.60;70.00;;;;;;5016331;28;20029;-84
2022/07/28 11:05:26;;;;;;;2.42;0.77;;;22.60;69.70;;;;;;5012872;28;20037;-84
2022/07/28 11:07:52;;;;;;;1.88;0.80;;;22.70;69.90;;;;;;5044727;28;20052;-84
2022/07/28 11:10:19;;;;;;;2.60;0.65;;;22.70;69.50;;;;;;5035772;28;20481;-85
2022/07/28 11:12:54;;;;;;;4.28;1.20;;;22.80;69.00;;;;;;5033610;28;20072;-84
2022/07/28 11:15:37;;;;;;;3.47;1.13;;;22.80;68.70;;;;;;5037263;28;20104;-84
2022/07/28 11:18:07;;;;;;;1.58;0.75;;;22.90;68.20;;;;;;5016363;28;20432;-83
2022/07/28 11:23:35;;;;;;;2.47;0.88;;;23.00;68.40;;;;;;5006176;28;19928;-84
2022/07/28 11:26:26;;;;;;;1.10;0.55;;;23.00;67.10;;;;;;4993630;28;20022;-85
2022/07/28 11:29:19;;;;;;;6.00;1.10;;;23.00;66.90;;;;;;4993437;28;20026;-85
2022/07/28 11:31:47;;;;;;;2.08;0.85;;;23.10;66.40;;;;;;5008023;28;20113;-85
2022/07/28 11:34:18;;;;;;;3.80;1.13;;;23.10;65.80;;;;;;5008119;28;20456;-85
2022/07/28 11:37:02;;;;;;;2.92;0.73;;;23.20;66.00;;;;;;4994235;28;20545;-85
2022/07/28 11:39:38;;;;;;;2.40;0.75;;;23.20;66.30;;;;;;4989361;28;20026;-84
2022/07/28 11:42:26;;;;;;;1.73;0.70;;;23.30;66.70;;;;;;5013427;28;20029;-85
2022/07/28 11:44:53;;;;;;;1.27;0.63;;;23.40;67.40;;;;;;4980125;28;20029;-85
2022/07/28 11:47:27;;;;;;;1.95;0.85;;;23.50;67.60;;;;;;4995036;28;20041;-85
2022/07/28 11:50:13;;;;;;;1.48;0.93;;;23.50;66.50;;;;;;5005160;28;20019;-85
2022/07/28 11:52:50;;;;;;;3.03;0.80;;;23.50;65.50;;;;;;4996683;28;20114;-85
2022/07/28 11:55:17;;;;;;;3.13;0.90;;;23.60;65.00;;;;;;4993200;28;20121;-84
2022/07/28 11:57:43;;;;;;;1.17;0.60;;;23.70;64.50;;;;;;4980140;28;20146;-85
2022/07/28 12:00:09;;;;;;;1.77;0.75;;;23.70;64.40;;;;;;4979816;28;20034;-85
2022/07/28 12:02:35;;;;;;;1.45;0.60;;;23.70;65.00;;;;;;4980568;28;20030;-85
2022/07/28 12:05:08;;;;;;;3.17;1.00;;;23.80;65.40;;;;;;4960871;28;20169;-86
2022/07/28 12:07:41;;;;;;;2.78;1.05;;;23.90;64.40;;;;;;5005238;28;20100;-85
2022/07/28 12:10:30;;;;;;;1.10;0.65;;;23.90;63.70;;;;;;4980524;28;20113;-85
2022/07/28 12:12:58;;;;;;;3.00;0.75;;;24.00;63.60;;;;;;4988042;28;20030;-85
2022/07/28 12:15:25;;;;;;;3.10;0.75;;;24.00;63.40;;;;;;4979569;28;20038;-85
2022/07/28 12:17:50;;;;;;;1.42;0.80;;;24.10;63.30;;;;;;4994749;28;20030;-85
2022/07/28 12:20:17;;;;;;;2.13;0.80;;;24.10;62.80;;;;;;4992636;28;20095;-85
2022/07/28 12:23:01;;;;;;;2.33;0.90;;;24.20;62.70;;;;;;4992916;28;20089;-85
2022/07/28 12:25:27;;;;;;;3.05;0.95;;;24.30;62.70;;;;;;4994293;28;20019;-85
2022/07/28 12:27:53;;;;;;;4.10;1.20;;;24.30;62.30;;;;;;4977273;28;20038;-85
2022/07/28 12:30:25;;;;;;;2.97;0.95;;;24.40;61.90;;;;;;4975494;28;20134;-85
2022/07/28 12:32:51;;;;;;;1.63;0.70;;;24.40;61.60;;;;;;4998334;28;20026;-86
2022/07/28 12:35:17;;;;;;;1.02;0.80;;;24.50;61.60;;;;;;4981446;28;20468;-85
2022/07/28 12:37:47;;;;;;;1.10;0.60;;;24.50;61.70;;;;;;4993802;28;20031;-85
2022/07/28 12:40:15;;;;;;;3.53;1.40;;;24.60;61.80;;;;;;4973320;28;20034;-85
2022/07/28 12:42:41;;;;;;;2.20;0.80;;;24.60;61.30;;;;;;4990783;28;20041;-86
2022/07/28 12:45:08;;;;;;;2.67;0.95;;;24.80;60.80;;;;;;4976293;28;20114;-86
2022/07/28 12:47:36;;;;;;;3.00;1.00;;;24.80;60.60;;;;;;4971355;28;20023;-85
2022/07/28 12:50:13;;;;;;;2.28;0.80;;;24.90;60.70;;;;;;4972964;28;20041;-86
2022/07/28 12:52:41;;;;;;;2.13;0.70;;;24.90;60.70;;;;;;5001646;28;20033;-85
2022/07/28 12:55:21;;;;;;;2.35;0.90;;;25.00;60.50;;;;;;4990909;28;20030;-85
2022/07/28 12:57:46;;;;;;;1.77;0.85;;;25.10;60.80;;;;;;5000860;28;20045;-84
2022/07/28 13:00:13;;;;;;;3.10;1.00;;;25.10;60.50;;;;;;4998344;28;20476;-85
2022/07/28 13:02:39;;;;;;;2.05;1.05;;;25.20;60.40;;;;;;4986953;28;20066;-85
2022/07/28 13:05:06;;;;;;;1.15;0.70;;;25.30;60.20;;;;;;5003557;28;20027;-84
2022/07/28 13:07:33;;;;;;;4.57;1.10;;;25.30;59.80;;;;;;5002600;28;20051;-84
2022/07/28 13:10:09;;;;;;;1.52;0.77;;;25.30;59.10;;;;;;4997721;28;20030;-86
2022/07/28 13:12:35;;;;;;;2.47;0.90;;;25.30;59.70;;;;;;4997618;28;20011;-85
2022/07/28 13:15:14;;;;;;;4.85;1.33;;;25.40;59.20;;;;;;5003391;28;20026;-86
2022/07/28 13:17:58;;;;;;;2.90;1.10;;;25.40;58.80;;;;;;5007748;28;20030;-85
2022/07/28 13:20:25;;;;;;;4.28;1.20;;;25.40;58.80;;;;;;5018340;28;20022;-84
2022/07/28 13:22:52;;;;;;;2.42;0.80;;;25.40;58.80;;;;;;5017485;28;20052;-85
2022/07/28 13:25:19;;;;;;;4.20;1.00;;;25.40;59.00;;;;;;4985867;28;20033;-85